Observations for WELLINGTON INTL, New Zealand (NZWN)

NZWN 242030Z AUTO 36009KT 9999 NCD 12/09 Q1019 NOSIG
NZWN 242000Z AUTO 02009KT 9999 NCD 11/08 Q1019 NOSIG
NZWN 241930Z AUTO 03007KT 9999 NCD 10/07 Q1018 NOSIG
NZWN 241900Z AUTO 02009KT 9999 NCD 10/08 Q1018 NOSIG
NZWN 241830Z AUTO 01009KT 9999 NCD 10/08 Q1018 NOSIG
NZWN 241800Z AUTO 01008KT 9999 NCD 10/08 Q1018 NOSIG
NZWN 241730Z AUTO 01007KT 9999 NCD 10/08 Q1018 NOSIG
NZWN 241700Z AUTO 01007KT 9999 NCD 10/09 Q1018 NOSIG
NZWN 241630Z AUTO 02007KT 9999 NCD 10/08 Q1018 NOSIG
NZWN 241600Z AUTO 01006KT 9999 NCD 10/08 Q1018 NOSIG
NZWN 241530Z AUTO 02005KT 9999 NCD 10/08 Q1018 NOSIG
NZWN 241500Z AUTO 01005KT 9999 NCD 10/08 Q1018 NOSIG
NZWN 241430Z AUTO 03006KT 9999 NCD 11/09 Q1018 NOSIG
NZWN 241400Z AUTO 03005KT 9999 NCD 10/08 Q1018 NOSIG
NZWN 241330Z AUTO 02005KT 9999 NCD 10/08 Q1018 NOSIG
NZWN 241300Z AUTO 02005KT 9999 NCD 11/08 Q1018 NOSIG
NZWN 241230Z AUTO 01005KT 340V040 9999 NCD 11/08 Q1018 NOSIG
NZWN 241200Z AUTO 36007KT 9999 NCD 11/09 Q1018 NOSIG
NZWN 241130Z AUTO 36009KT 9999 NCD 12/09 Q1018 NOSIG
NZWN 241100Z AUTO 01009KT 9999 NCD 11/09 Q1018 NOSIG
NZWN 241030Z AUTO 02008KT 9999 NCD 12/09 Q1018 NOSIG
NZWN 241000Z AUTO 02008KT 9999 NCD 12/09 Q1018 NOSIG
NZWN 240930Z AUTO 01010KT 9999 NCD 12/09 Q1018 NOSIG
NZWN 240900Z AUTO 01008KT 9999 NCD 12/09 Q1017 NOSIG
NZWN 240830Z AUTO 01011KT 9999 NCD 13/09 Q1017 NOSIG
NZWN 240800Z AUTO 02010KT 9999 NCD 13/09 Q1017 NOSIG
NZWN 240730Z AUTO 02011KT 9999 NCD 14/10 Q1017 NOSIG
NZWN 240700Z AUTO 02012KT 9999 NCD 14/10 Q1016 NOSIG
NZWN 240630Z AUTO 02011KT 9999 NCD 15/10 Q1016 NOSIG
NZWN 240600Z AUTO 02010KT 9999 NCD 15/09 Q1016 NOSIG
NZWN 240530Z AUTO 02012KT 9999 NCD 15/09 Q1016 NOSIG
NZWN 240500Z AUTO 36013KT 9999 NCD 16/08 Q1015 NOSIG
NZWN 240430Z AUTO 36014KT 9999 NCD 16/09 Q1015 NOSIG
NZWN 240400Z AUTO 01015KT 9999 NCD 16/09 Q1015 NOSIG
NZWN 240330Z AUTO 01017KT 9999 NCD 16/09 Q1015 NOSIG
NZWN 240300Z AUTO 01016KT 9999 NCD 17/10 Q1015 NOSIG
NZWN 240230Z AUTO 36018KT 9999 NCD 17/10 Q1015 NOSIG
NZWN 240200Z AUTO 36018KT 9999 FEW031/// 16/10 Q1015 NOSIG  
NZWN 240130Z AUTO 35018KT 9999 NCD 16/09 Q1015 NOSIG
NZWN 240100Z AUTO 35018KT 9999 FEW030/// 17/09 Q1015 NOSIG  
NZWN 240030Z AUTO 35016KT 9999 NCD 17/09 Q1015 NOSIG
NZWN 240000Z AUTO 36020KT 9999 NCD 17/09 Q1016 NOSIG
NZWN 232330Z AUTO 36018KT 9999 NCD 17/09 Q1016 NOSIG
NZWN 232300Z AUTO 36016KT 9999 NCD 16/09 Q1016 NOSIG
NZWN 232230Z AUTO 35015KT 9999 NCD 16/09 Q1016 NOSIG
NZWN 232200Z AUTO 36016KT 9999 NCD 15/09 Q1016 NOSIG
NZWN 232130Z AUTO 36019KT 9999 NCD 15/09 Q1016 NOSIG
NZWN 232100Z AUTO 36018KT 9999 NCD 15/09 Q1016 NOSIG
NZWN 232030Z AUTO 01017KT 9999 NCD 14/08 Q1016 NOSIG
NZWN 232000Z AUTO 35017KT 9999 NCD 14/08 Q1016 NOSIG